Bei Facebook empfehlenBei Twitter postenGoogle plusPinterest

Das Wetter im Erzgebirge am 13.06.2017

Wetter und Klima am 13.06.2017 Holzhau im Erzgebirge (630m ü.NN)
Letzte gemessene Temperatur und Uhrzeit der Messung23:45:00 Uhr7.80 °C
Temperatur (Maximum / Höchstwert) und Uhrzeit der Messung13:45:00 Uhr18.20 °C
Temperatur (Minimum / Tiefstwert) und Uhrzeit der Messung05:00:007.30 °C
Errechneter Absolutwert der Temperaturschwankungen zwischen Tmin und Tmax des Tages10.90 K
Errechnete Tagesmitteltemperatur13.16042 °C
Gesamt - Niederschlag des Tages (in flüssiger Form)0.00 Liter / m²
Luftdruck (Maximum / Höchstwert) und Zeitpunkt der Messung23:15:00 Uhr1016.20 hPa
Luftdruck (Minimum / Tiefstwert) und Zeitpunkt der Messung01:00:00 Uhr1013.50 hPa
Errechneter Absolutwert der Luftdruckschwankungen des Tages2.70 hPa
Höchste gemessene Windgeschwindigkeit und Uhrzeit der Messung09:30:00 Uhr24.48 km/h
Errechnete Windhäufigkeit in Relation zu den Messwerten des Tages9.37500 %
Niedrigste Windkühle (Windchill) und Zeitpunkt der Messung05:00:00 Uhr7.30 °C
Taupunkt (Maximum / Höchstwert) und Uhrzeit der Messung17:30:00 Uhr9.50 °C
Taupunkt (Minimum / Tiefstwert) und Uhrzeit der Messung04:45:004.40 °C
Anzahl der automatisch eingelesenen Messwerte 96

Detaillierte Wetter- und Klima- Messwerte für den 13.06.2017 in Holzhau im Erzgebirge (630m ü.NN)
ZeitTemperaturLuftdruckRel. LuftfeuchteWindWindrichtungWindchillTaupunktNiederschlag l/m²
23:45:007.80 °C1016.00 hPa84.00 %5.30 °C 
23:30:007.80 °C1016.00 hPa83.00 %5.10 °C 
23:15:008.00 °C1016.20 hPa82.00 %5.10 °C 
23:00:008.40 °C1016.10 hPa80.00 %5.20 °C 
22:45:009.00 °C1016.00 hPa79.00 %5.60 °C 
22:30:009.60 °C1016.10 hPa78.00 %6.00 °C 
22:15:0010.30 °C1016.00 hPa77.00 %6.50 °C 
22:00:0011.00 °C1015.80 hPa76.00 %6.90 °C 
21:45:0011.60 °C1015.60 hPa75.00 %7.30 °C 
21:30:0012.10 °C1015.60 hPa74.00 %7.60 °C 
21:15:0012.40 °C1015.50 hPa73.00 %7.70 °C 
21:00:0012.70 °C1015.10 hPa72.00 %7.80 °C 
20:45:0013.10 °C1015.00 hPa72.00 %8.20 °C 
20:30:0013.40 °C1015.00 hPa70.00 %8.00 °C 
20:15:0013.90 °C1015.00 hPa70.00 %8.50 °C 
20:00:0013.90 °C1015.20 hPa69.00 %8.30 °C 
19:45:0014.10 °C1015.30 hPa67.00 %8.10 °C 
19:30:0014.60 °C1015.30 hPa66.00 %8.30 °C 
19:15:0014.90 °C1015.40 hPa65.00 %8.40 °C 
19:00:0015.30 °C1015.30 hPa64.00 %8.50 °C 
18:45:0015.60 °C1015.30 hPa63.00 %8.60 °C 
18:30:0015.90 °C1015.20 hPa62.00 %8.60 °C 
18:15:0016.10 °C1015.20 hPa61.00 %8.60 °C 
18:00:0016.40 °C1015.20 hPa61.00 %8.90 °C 
17:45:0016.20 °C1015.30 hPa63.00 %9.20 °C 
17:30:0016.10 °C1015.40 hPa65.00 %9.50 °C 
17:15:0015.60 °C1015.20 hPa63.00 %8.60 °C 
17:00:0015.40 °C1015.30 hPa64.00 %8.60 °C 
16:45:0016.30 °C1015.20 hPa61.00 %8.80 °C 
16:30:0016.50 °C1015.30 hPa62.00 %9.20 °C 
16:15:0016.40 °C1015.60 hPa62.00 %9.10 °C 
16:00:0016.10 °C1015.50 hPa61.00 %8.60 °C 
15:45:0017.30 °C1015.10 hPa59.00 %9.20 °C 
15:30:0016.10 °C1015.30 hPa61.00 %8.60 °C 
15:15:0016.30 °C1015.60 hPa57.00 %9.00 km/hWNW16.30 °C7.80 °C 
15:00:0017.30 °C1015.30 hPa57.00 %8.70 °C 
14:45:0016.90 °C1015.20 hPa56.00 %8.10 °C 
14:30:0017.60 °C1015.10 hPa54.00 %8.20 °C 
14:15:0018.10 °C1015.10 hPa55.00 %8.90 °C 
14:00:0017.90 °C1015.00 hPa54.00 %8.50 °C 
13:45:0018.20 °C1014.90 hPa53.00 %18.00 km/hW19.10 °C8.50 °C 
13:30:0018.20 °C1015.20 hPa53.00 %3.96 km/hSO18.20 °C8.50 °C 
13:15:0017.40 °C1015.20 hPa55.00 %8.30 °C 
13:00:0017.40 °C1015.20 hPa54.00 %3.96 km/hW17.40 °C8.00 °C 
12:45:0017.50 °C1015.20 hPa54.00 %8.10 °C 
12:30:0017.40 °C1015.50 hPa56.00 %8.50 °C 
12:15:0016.80 °C1015.40 hPa59.00 %3.96 km/hW16.80 °C8.80 °C 
12:00:0016.90 °C1015.20 hPa58.00 %3.96 km/hWNW16.90 °C8.60 °C 
11:45:0016.50 °C1015.20 hPa61.00 %9.00 °C 
11:30:0016.10 °C1015.40 hPa60.00 %8.30 °C 
11:15:0015.60 °C1015.00 hPa61.00 %7.92 km/hW15.60 °C8.10 °C 
11:00:0015.10 °C1015.10 hPa62.00 %7.90 °C 
10:45:0015.30 °C1015.00 hPa62.00 %8.10 °C 
10:30:0015.90 °C1014.80 hPa60.00 %8.20 °C 
10:15:0015.80 °C1014.60 hPa65.00 %9.20 °C 
10:00:0014.30 °C1014.80 hPa67.00 %8.30 °C 
09:45:0014.60 °C1014.70 hPa64.00 %7.90 °C 
09:30:0015.60 °C1014.50 hPa66.00 %24.48 km/hSW15.80 °C9.30 °C 
09:15:0014.90 °C1014.60 hPa66.00 %8.60 °C 
09:00:0014.60 °C1014.50 hPa68.00 %16.92 km/hW14.60 °C8.80 °C 
08:45:0014.80 °C1014.30 hPa68.00 %9.00 °C 
08:30:0015.00 °C1014.20 hPa69.00 %9.40 °C 
08:15:0014.20 °C1014.20 hPa73.00 %9.40 °C 
08:00:0012.90 °C1014.40 hPa75.00 %8.60 °C 
07:45:0012.60 °C1014.40 hPa76.00 %8.50 °C 
07:30:0012.30 °C1014.20 hPa78.00 %8.60 °C 
07:15:0011.80 °C1014.50 hPa79.00 %8.30 °C 
07:00:0011.30 °C1014.40 hPa81.00 %8.20 °C 
06:45:0010.90 °C1014.40 hPa82.00 %8.00 °C 
06:30:0010.30 °C1014.60 hPa82.00 %7.40 °C 
06:15:009.70 °C1014.50 hPa83.00 %7.00 °C 
06:00:009.30 °C1014.70 hPa83.00 %6.60 °C 
05:45:008.90 °C1014.60 hPa84.00 %6.30 °C 
05:30:008.40 °C1014.60 hPa84.00 %5.90 °C 
05:15:007.90 °C1014.70 hPa84.00 %5.40 °C 
05:00:007.30 °C1014.50 hPa84.00 %4.80 °C 
04:45:007.30 °C1014.60 hPa82.00 %4.40 °C 
04:30:007.60 °C1014.60 hPa81.00 %4.60 °C 
04:15:007.90 °C1014.60 hPa81.00 %4.80 °C 
04:00:008.10 °C1014.30 hPa81.00 %5.00 °C 
03:45:008.20 °C1014.20 hPa80.00 %5.00 °C 
03:30:008.60 °C1014.20 hPa79.00 %5.20 °C 
03:15:009.00 °C1014.10 hPa78.00 %5.40 °C 
03:00:009.40 °C1014.10 hPa77.00 %5.60 °C 
02:45:009.80 °C1014.10 hPa77.00 %6.00 °C 
02:30:009.90 °C1014.00 hPa76.00 %5.90 °C 
02:15:0010.30 °C1014.00 hPa74.00 %5.90 °C 
02:00:0010.80 °C1013.90 hPa74.00 %6.40 °C 
01:45:0010.90 °C1013.90 hPa74.00 %6.50 °C 
01:30:0010.90 °C1013.80 hPa73.00 %6.30 °C 
01:15:0010.80 °C1013.70 hPa73.00 %6.20 °C 
01:00:0010.90 °C1013.50 hPa72.00 %6.10 °C 
00:45:0011.30 °C1013.50 hPa71.00 %6.20 °C 
00:30:0011.60 °C1013.60 hPa70.00 %6.30 °C 
00:15:0012.10 °C1013.50 hPa70.00 %6.80 °C 
00:00:0012.30 °C1013.50 hPa71.00 %7.20 °C 

Permanenter Link zu dieser Seite: Wetter im Erzgebirge am 13.06.2017
Performance-Info: Die Erstellung der Seite / Statistik(en) / Tabelle(n) erforderte 5 Datenbankserver-Abfrage(n) und dauerte 101 Millisekunden. (Dieser Messwert ist von der Gesamt-Auslastung des Servers abhängig.)
Erzgebirge - Wetter | Erzgebirge - Wetter (Mobilgeräte) | Komplette Klimadatenbank